sensor_id;sensor_type;location;lat;lon;timestamp;P1;durP1;ratioP1;P2;durP2;ratioP2
32451;SDS011;45528;52.102;5.242;2023-07-16T00:01:25;7.8;;;2.6;;
32451;SDS011;45528;52.102;5.242;2023-07-16T00:04:40;5.0;;;1.9;;
32451;SDS011;45528;52.102;5.242;2023-07-16T00:06:16;4.2;;;1.4;;
32451;SDS011;45528;52.102;5.242;2023-07-16T00:07:52;3.8;;;1.4;;
32451;SDS011;45528;52.102;5.242;2023-07-16T00:09:28;5.5;;;1.4;;
32451;SDS011;45528;52.102;5.242;2023-07-16T00:12:42;5.0;;;1.7;;
32451;SDS011;45528;52.102;5.242;2023-07-16T00:14:19;7.8;;;1.5;;
32451;SDS011;45528;52.102;5.242;2023-07-16T00:15:56;4.41;;;1.4;;
32451;SDS011;45528;52.102;5.242;2023-07-16T00:19:10;4.8;;;1.7;;
32451;SDS011;45528;52.102;5.242;2023-07-16T00:20:47;4.2;;;1.6;;
32451;SDS011;45528;52.102;5.242;2023-07-16T00:22:23;4.5;;;1.4;;
32451;SDS011;45528;52.102;5.242;2023-07-16T00:25:37;4.41;;;1.8;;
32451;SDS011;45528;52.102;5.242;2023-07-16T00:27:13;3.7;;;1.6;;
32451;SDS011;45528;52.102;5.242;2023-07-16T00:28:51;5.9;;;1.7;;
32451;SDS011;45528;52.102;5.242;2023-07-16T00:30:28;5.0;;;1.6;;
32451;SDS011;45528;52.102;5.242;2023-07-16T00:33:41;4.91;;;1.7;;
32451;SDS011;45528;52.102;5.242;2023-07-16T00:35:17;8.1;;;2.0;;
32451;SDS011;45528;52.102;5.242;2023-07-16T00:36:53;5.3;;;1.9;;
32451;SDS011;45528;52.102;5.242;2023-07-16T00:40:07;7.1;;;2.21;;
32451;SDS011;45528;52.102;5.242;2023-07-16T00:41:44;8.2;;;2.0;;
32451;SDS011;45528;52.102;5.242;2023-07-16T00:43:21;7.7;;;2.1;;
32451;SDS011;45528;52.102;5.242;2023-07-16T00:44:58;6.3;;;1.9;;
32451;SDS011;45528;52.102;5.242;2023-07-16T00:48:12;4.61;;;1.7;;
32451;SDS011;45528;52.102;5.242;2023-07-16T00:49:49;5.5;;;1.8;;
32451;SDS011;45528;52.102;5.242;2023-07-16T00:51:26;6.6;;;1.8;;
32451;SDS011;45528;52.102;5.242;2023-07-16T00:54:41;4.61;;;1.8;;
32451;SDS011;45528;52.102;5.242;2023-07-16T00:56:18;6.0;;;1.8;;
32451;SDS011;45528;52.102;5.242;2023-07-16T00:57:55;5.5;;;1.8;;
32451;SDS011;45528;52.102;5.242;2023-07-16T00:59:38;8.5;;;1.6;;
32451;SDS011;45528;52.102;5.242;2023-07-16T01:02:51;9.1;;;2.1;;
32451;SDS011;45528;52.102;5.242;2023-07-16T01:04:28;8.4;;;2.21;;
32451;SDS011;45528;52.102;5.242;2023-07-16T01:06:08;7.7;;;2.1;;
32451;SDS011;45528;52.102;5.242;2023-07-16T01:09:34;8.2;;;2.1;;
32451;SDS011;45528;52.102;5.242;2023-07-16T01:11:17;7.7;;;1.9;;
32451;SDS011;45528;52.102;5.242;2023-07-16T01:12:55;4.61;;;1.8;;
32451;SDS011;45528;52.102;5.242;2023-07-16T01:14:33;4.3;;;1.7;;
32451;SDS011;45528;52.102;5.242;2023-07-16T01:17:54;5.3;;;2.0;;
32451;SDS011;45528;52.102;5.242;2023-07-16T01:19:32;6.9;;;1.9;;
32451;SDS011;45528;52.102;5.242;2023-07-16T01:21:08;6.3;;;2.0;;
32451;SDS011;45528;52.102;5.242;2023-07-16T01:22:49;5.5;;;1.9;;
32451;SDS011;45528;52.102;5.242;2023-07-16T01:25:10;8.9;;;1.9;;
32451;SDS011;45528;52.102;5.242;2023-07-16T01:27:16;4.5;;;2.0;;
32451;SDS011;45528;52.102;5.242;2023-07-16T01:29:18;5.6;;;2.0;;
32451;SDS011;45528;52.102;5.242;2023-07-16T01:31:05;7.6;;;2.21;;
32451;SDS011;45528;52.102;5.242;2023-07-16T01:34:22;7.4;;;2.1;;
32451;SDS011;45528;52.102;5.242;2023-07-16T01:36:02;7.1;;;2.4;;
32451;SDS011;45528;52.102;5.242;2023-07-16T01:37:39;7.1;;;2.21;;
32451;SDS011;45528;52.102;5.242;2023-07-16T01:40:53;6.3;;;2.5;;
32451;SDS011;45528;52.102;5.242;2023-07-16T01:42:29;6.8;;;1.8;;
32451;SDS011;45528;52.102;5.242;2023-07-16T01:44:05;7.5;;;2.31;;
32451;SDS011;45528;52.102;5.242;2023-07-16T01:45:42;6.3;;;2.21;;
32451;SDS011;45528;52.102;5.242;2023-07-16T01:49:07;6.6;;;2.1;;
32451;SDS011;45528;52.102;5.242;2023-07-16T01:50:43;6.6;;;2.21;;
32451;SDS011;45528;52.102;5.242;2023-07-16T01:52:20;6.1;;;2.4;;
32451;SDS011;45528;52.102;5.242;2023-07-16T01:55:35;9.0;;;2.31;;
32451;SDS011;45528;52.102;5.242;2023-07-16T01:57:11;5.11;;;2.0;;
32451;SDS011;45528;52.102;5.242;2023-07-16T01:58:47;7.4;;;2.21;;
32451;SDS011;45528;52.102;5.242;2023-07-16T02:00:24;5.7;;;2.4;;
32451;SDS011;45528;52.102;5.242;2023-07-16T02:03:38;7.5;;;2.5;;
32451;SDS011;45528;52.102;5.242;2023-07-16T02:05:15;7.8;;;2.4;;
32451;SDS011;45528;52.102;5.242;2023-07-16T02:06:52;7.2;;;2.7;;
32451;SDS011;45528;52.102;5.242;2023-07-16T02:10:05;8.6;;;2.6;;
32451;SDS011;45528;52.102;5.242;2023-07-16T02:11:42;6.8;;;2.6;;
32451;SDS011;45528;52.102;5.242;2023-07-16T02:13:19;6.5;;;2.4;;
32451;SDS011;45528;52.102;5.242;2023-07-16T02:14:56;6.4;;;2.6;;
32451;SDS011;45528;52.102;5.242;2023-07-16T02:18:08;7.6;;;2.8;;
32451;SDS011;45528;52.102;5.242;2023-07-16T02:19:46;6.3;;;2.4;;
32451;SDS011;45528;52.102;5.242;2023-07-16T02:21:22;7.7;;;2.7;;
32451;SDS011;45528;52.102;5.242;2023-07-16T02:24:36;8.81;;;2.7;;
32451;SDS011;45528;52.102;5.242;2023-07-16T02:26:12;9.1;;;3.0;;
32451;SDS011;45528;52.102;5.242;2023-07-16T02:27:49;7.5;;;2.6;;
32451;SDS011;45528;52.102;5.242;2023-07-16T02:31:01;5.3;;;2.6;;
32451;SDS011;45528;52.102;5.242;2023-07-16T02:32:39;7.2;;;2.7;;
32451;SDS011;45528;52.102;5.242;2023-07-16T02:34:15;7.4;;;3.0;;
32451;SDS011;45528;52.102;5.242;2023-07-16T02:35:52;7.4;;;3.0;;
32451;SDS011;45528;52.102;5.242;2023-07-16T02:39:05;8.5;;;3.1;;
32451;SDS011;45528;52.102;5.242;2023-07-16T02:40:42;8.6;;;2.8;;
32451;SDS011;45528;52.102;5.242;2023-07-16T02:42:19;8.6;;;2.8;;
32451;SDS011;45528;52.102;5.242;2023-07-16T02:45:37;7.9;;;2.8;;
32451;SDS011;45528;52.102;5.242;2023-07-16T02:47:14;10.3;;;3.1;;
32451;SDS011;45528;52.102;5.242;2023-07-16T02:48:51;8.71;;;3.2;;
32451;SDS011;45528;52.102;5.242;2023-07-16T02:52:05;7.1;;;2.8;;
32451;SDS011;45528;52.102;5.242;2023-07-16T02:53:42;12.0;;;3.2;;
32451;SDS011;45528;52.102;5.242;2023-07-16T02:55:18;8.71;;;3.1;;
32451;SDS011;45528;52.102;5.242;2023-07-16T02:56:56;8.1;;;2.7;;
32451;SDS011;45528;52.102;5.242;2023-07-16T03:00:11;7.6;;;2.7;;
32451;SDS011;45528;52.102;5.242;2023-07-16T03:01:48;9.4;;;3.1;;
32451;SDS011;45528;52.102;5.242;2023-07-16T03:03:25;7.9;;;2.6;;
32451;SDS011;45528;52.102;5.242;2023-07-16T03:06:39;11.3;;;3.0;;
32451;SDS011;45528;52.102;5.242;2023-07-16T03:08:15;5.7;;;2.4;;
32451;SDS011;45528;52.102;5.242;2023-07-16T03:09:51;7.6;;;2.6;;
32451;SDS011;45528;52.102;5.242;2023-07-16T03:11:28;7.6;;;2.6;;
32451;SDS011;45528;52.102;5.242;2023-07-16T03:14:41;7.6;;;2.6;;
32451;SDS011;45528;52.102;5.242;2023-07-16T03:16:19;7.7;;;2.7;;
32451;SDS011;45528;52.102;5.242;2023-07-16T03:17:56;7.7;;;2.7;;
32451;SDS011;45528;52.102;5.242;2023-07-16T03:21:09;6.2;;;2.4;;
32451;SDS011;45528;52.102;5.242;2023-07-16T03:22:45;8.9;;;3.1;;
32451;SDS011;45528;52.102;5.242;2023-07-16T03:24:23;7.4;;;2.6;;
32451;SDS011;45528;52.102;5.242;2023-07-16T03:27:36;6.3;;;2.5;;
32451;SDS011;45528;52.102;5.242;2023-07-16T03:29:13;6.2;;;2.4;;
32451;SDS011;45528;52.102;5.242;2023-07-16T03:30:51;6.8;;;2.7;;
32451;SDS011;45528;52.102;5.242;2023-07-16T03:32:27;7.8;;;2.5;;
32451;SDS011;45528;52.102;5.242;2023-07-16T03:35:41;5.4;;;2.4;;
32451;SDS011;45528;52.102;5.242;2023-07-16T03:37:18;5.3;;;2.5;;
32451;SDS011;45528;52.102;5.242;2023-07-16T03:38:55;5.7;;;2.4;;
32451;SDS011;45528;52.102;5.242;2023-07-16T03:42:09;5.8;;;2.31;;
32451;SDS011;45528;52.102;5.242;2023-07-16T03:43:45;6.5;;;2.5;;
32451;SDS011;45528;52.102;5.242;2023-07-16T03:45:23;5.7;;;2.8;;
32451;SDS011;45528;52.102;5.242;2023-07-16T03:46:59;6.7;;;2.4;;
32451;SDS011;45528;52.102;5.242;2023-07-16T03:50:12;6.5;;;2.7;;
32451;SDS011;45528;52.102;5.242;2023-07-16T03:51:49;7.9;;;3.1;;
32451;SDS011;45528;52.102;5.242;2023-07-16T03:53:25;7.6;;;2.5;;
32451;SDS011;45528;52.102;5.242;2023-07-16T03:56:39;6.7;;;2.31;;
32451;SDS011;45528;52.102;5.242;2023-07-16T03:58:15;7.6;;;2.9;;
32451;SDS011;45528;52.102;5.242;2023-07-16T03:59:51;6.5;;;2.5;;
32451;SDS011;45528;52.102;5.242;2023-07-16T04:03:04;8.0;;;2.8;;
32451;SDS011;45528;52.102;5.242;2023-07-16T04:04:41;10.1;;;3.1;;
32451;SDS011;45528;52.102;5.242;2023-07-16T04:06:18;8.71;;;3.0;;
32451;SDS011;45528;52.102;5.242;2023-07-16T04:07:54;5.8;;;2.6;;
32451;SDS011;45528;52.102;5.242;2023-07-16T04:11:06;7.7;;;3.4;;
32451;SDS011;45528;52.102;5.242;2023-07-16T04:12:43;9.1;;;3.1;;
32451;SDS011;45528;52.102;5.242;2023-07-16T04:14:20;6.5;;;2.9;;
32451;SDS011;45528;52.102;5.242;2023-07-16T04:17:35;7.5;;;3.1;;
32451;SDS011;45528;52.102;5.242;2023-07-16T04:19:11;8.31;;;3.0;;
32451;SDS011;45528;52.102;5.242;2023-07-16T04:20:48;10.21;;;2.9;;
32451;SDS011;45528;52.102;5.242;2023-07-16T04:24:02;13.4;;;3.7;;
32451;SDS011;45528;52.102;5.242;2023-07-16T04:25:39;9.31;;;3.2;;
32451;SDS011;45528;52.102;5.242;2023-07-16T04:27:16;8.31;;;3.2;;
32451;SDS011;45528;52.102;5.242;2023-07-16T04:28:53;6.6;;;3.3;;
32451;SDS011;45528;52.102;5.242;2023-07-16T04:32:07;8.5;;;3.5;;
32451;SDS011;45528;52.102;5.242;2023-07-16T04:33:44;10.0;;;3.8;;
32451;SDS011;45528;52.102;5.242;2023-07-16T04:35:22;9.5;;;3.6;;
32451;SDS011;45528;52.102;5.242;2023-07-16T04:38:35;9.31;;;3.5;;
32451;SDS011;45528;52.102;5.242;2023-07-16T04:40:11;9.1;;;3.4;;
32451;SDS011;45528;52.102;5.242;2023-07-16T04:41:48;10.21;;;3.3;;
32451;SDS011;45528;52.102;5.242;2023-07-16T04:45:00;7.8;;;3.4;;
32451;SDS011;45528;52.102;5.242;2023-07-16T04:46:38;6.6;;;3.3;;
32451;SDS011;45528;52.102;5.242;2023-07-16T04:48:14;6.9;;;3.2;;
32451;SDS011;45528;52.102;5.242;2023-07-16T04:49:50;9.9;;;3.5;;
32451;SDS011;45528;52.102;5.242;2023-07-16T04:53:04;8.6;;;3.1;;
32451;SDS011;45528;52.102;5.242;2023-07-16T04:54:41;6.9;;;3.1;;
32451;SDS011;45528;52.102;5.242;2023-07-16T04:56:17;6.8;;;3.1;;
32451;SDS011;45528;52.102;5.242;2023-07-16T04:59:31;6.8;;;3.2;;
32451;SDS011;45528;52.102;5.242;2023-07-16T05:01:07;6.9;;;3.4;;
32451;SDS011;45528;52.102;5.242;2023-07-16T05:02:45;11.9;;;3.6;;
32451;SDS011;45528;52.102;5.242;2023-07-16T05:05:58;9.21;;;3.5;;
32451;SDS011;45528;52.102;5.242;2023-07-16T05:07:35;9.0;;;3.1;;
32451;SDS011;45528;52.102;5.242;2023-07-16T05:09:11;7.4;;;3.5;;
32451;SDS011;45528;52.102;5.242;2023-07-16T05:10:48;7.6;;;3.1;;
32451;SDS011;45528;52.102;5.242;2023-07-16T05:14:01;10.4;;;3.2;;
32451;SDS011;45528;52.102;5.242;2023-07-16T05:15:38;8.6;;;3.3;;
32451;SDS011;45528;52.102;5.242;2023-07-16T05:17:15;6.7;;;3.1;;
32451;SDS011;45528;52.102;5.242;2023-07-16T05:20:28;7.2;;;3.7;;
32451;SDS011;45528;52.102;5.242;2023-07-16T05:22:05;7.7;;;3.5;;
32451;SDS011;45528;52.102;5.242;2023-07-16T05:23:42;11.7;;;3.4;;
32451;SDS011;45528;52.102;5.242;2023-07-16T05:25:19;7.5;;;3.3;;
32451;SDS011;45528;52.102;5.242;2023-07-16T05:28:32;6.1;;;3.2;;
32451;SDS011;45528;52.102;5.242;2023-07-16T05:30:09;8.5;;;3.7;;
32451;SDS011;45528;52.102;5.242;2023-07-16T05:31:46;9.6;;;3.4;;
32451;SDS011;45528;52.102;5.242;2023-07-16T05:34:58;8.9;;;3.3;;
32451;SDS011;45528;52.102;5.242;2023-07-16T05:36:34;9.81;;;3.8;;
32451;SDS011;45528;52.102;5.242;2023-07-16T05:38:11;8.9;;;3.8;;
32451;SDS011;45528;52.102;5.242;2023-07-16T05:41:24;5.5;;;3.5;;
32451;SDS011;45528;52.102;5.242;2023-07-16T05:43:01;5.8;;;3.1;;
32451;SDS011;45528;52.102;5.242;2023-07-16T05:44:38;10.5;;;3.8;;
32451;SDS011;45528;52.102;5.242;2023-07-16T05:46:15;8.0;;;3.4;;
32451;SDS011;45528;52.102;5.242;2023-07-16T05:49:29;8.81;;;3.5;;
32451;SDS011;45528;52.102;5.242;2023-07-16T05:51:05;8.31;;;3.8;;
32451;SDS011;45528;52.102;5.242;2023-07-16T05:52:42;9.5;;;3.5;;
32451;SDS011;45528;52.102;5.242;2023-07-16T05:55:54;7.9;;;3.6;;
32451;SDS011;45528;52.102;5.242;2023-07-16T05:57:31;10.7;;;3.9;;
32451;SDS011;45528;52.102;5.242;2023-07-16T05:59:08;7.4;;;3.6;;
32451;SDS011;45528;52.102;5.242;2023-07-16T06:02:21;7.6;;;3.4;;
32451;SDS011;45528;52.102;5.242;2023-07-16T06:03:58;7.8;;;3.8;;
32451;SDS011;45528;52.102;5.242;2023-07-16T06:05:36;9.5;;;4.0;;
32451;SDS011;45528;52.102;5.242;2023-07-16T06:07:13;8.5;;;3.6;;
32451;SDS011;45528;52.102;5.242;2023-07-16T06:10:26;7.3;;;3.5;;
32451;SDS011;45528;52.102;5.242;2023-07-16T06:12:04;9.6;;;3.7;;
32451;SDS011;45528;52.102;5.242;2023-07-16T06:13:40;10.4;;;3.6;;
32451;SDS011;45528;52.102;5.242;2023-07-16T06:16:54;8.9;;;3.8;;
32451;SDS011;45528;52.102;5.242;2023-07-16T06:18:30;9.6;;;3.6;;
32451;SDS011;45528;52.102;5.242;2023-07-16T06:20:07;8.4;;;3.6;;
32451;SDS011;45528;52.102;5.242;2023-07-16T06:23:21;9.6;;;3.5;;
32451;SDS011;45528;52.102;5.242;2023-07-16T06:24:57;9.0;;;3.6;;
32451;SDS011;45528;52.102;5.242;2023-07-16T06:26:33;10.6;;;3.6;;
32451;SDS011;45528;52.102;5.242;2023-07-16T06:28:10;7.8;;;3.5;;
32451;SDS011;45528;52.102;5.242;2023-07-16T06:31:23;7.9;;;3.9;;
32451;SDS011;45528;52.102;5.242;2023-07-16T06:32:59;8.5;;;4.0;;
32451;SDS011;45528;52.102;5.242;2023-07-16T06:34:36;7.9;;;3.6;;
32451;SDS011;45528;52.102;5.242;2023-07-16T06:37:49;9.0;;;3.7;;
32451;SDS011;45528;52.102;5.242;2023-07-16T06:39:25;9.6;;;3.6;;
32451;SDS011;45528;52.102;5.242;2023-07-16T06:41:03;9.0;;;4.1;;
32451;SDS011;45528;52.102;5.242;2023-07-16T06:44:17;12.0;;;4.3;;
32451;SDS011;45528;52.102;5.242;2023-07-16T06:45:53;8.0;;;4.1;;
32451;SDS011;45528;52.102;5.242;2023-07-16T06:47:30;9.5;;;4.1;;
32451;SDS011;45528;52.102;5.242;2023-07-16T06:49:06;11.9;;;4.5;;
32451;SDS011;45528;52.102;5.242;2023-07-16T06:52:21;6.7;;;3.4;;
32451;SDS011;45528;52.102;5.242;2023-07-16T06:53:58;11.3;;;3.9;;
32451;SDS011;45528;52.102;5.242;2023-07-16T06:55:35;7.6;;;3.7;;
32451;SDS011;45528;52.102;5.242;2023-07-16T06:58:50;8.4;;;3.9;;
32451;SDS011;45528;52.102;5.242;2023-07-16T07:00:26;8.9;;;3.6;;
32451;SDS011;45528;52.102;5.242;2023-07-16T07:02:03;6.9;;;3.0;;
32451;SDS011;45528;52.102;5.242;2023-07-16T07:03:41;8.5;;;3.5;;
32451;SDS011;45528;52.102;5.242;2023-07-16T07:06:56;8.5;;;3.5;;
32451;SDS011;45528;52.102;5.242;2023-07-16T07:08:33;8.9;;;3.7;;
32451;SDS011;45528;52.102;5.242;2023-07-16T07:10:09;7.0;;;3.7;;
32451;SDS011;45528;52.102;5.242;2023-07-16T07:13:24;7.2;;;3.2;;
32451;SDS011;45528;52.102;5.242;2023-07-16T07:15:00;10.3;;;3.6;;
32451;SDS011;45528;52.102;5.242;2023-07-16T07:16:37;8.5;;;3.7;;
32451;SDS011;45528;52.102;5.242;2023-07-16T07:19:49;7.2;;;3.8;;
32451;SDS011;45528;52.102;5.242;2023-07-16T07:21:25;8.71;;;3.4;;
32451;SDS011;45528;52.102;5.242;2023-07-16T07:23:02;11.8;;;3.9;;
32451;SDS011;45528;52.102;5.242;2023-07-16T07:24:39;8.6;;;3.6;;
32451;SDS011;45528;52.102;5.242;2023-07-16T07:27:51;10.6;;;4.1;;
32451;SDS011;45528;52.102;5.242;2023-07-16T07:29:27;9.31;;;3.8;;
32451;SDS011;45528;52.102;5.242;2023-07-16T07:31:04;8.81;;;4.3;;
32451;SDS011;45528;52.102;5.242;2023-07-16T07:34:17;7.9;;;4.2;;
32451;SDS011;45528;52.102;5.242;2023-07-16T07:35:53;8.31;;;3.4;;
32451;SDS011;45528;52.102;5.242;2023-07-16T07:37:29;9.0;;;4.0;;
32451;SDS011;45528;52.102;5.242;2023-07-16T07:40:44;10.3;;;4.2;;
32451;SDS011;45528;52.102;5.242;2023-07-16T07:42:20;7.3;;;3.9;;
32451;SDS011;45528;52.102;5.242;2023-07-16T07:43:56;7.8;;;4.0;;
32451;SDS011;45528;52.102;5.242;2023-07-16T07:45:33;9.1;;;4.0;;
32451;SDS011;45528;52.102;5.242;2023-07-16T07:48:46;9.0;;;4.2;;
32451;SDS011;45528;52.102;5.242;2023-07-16T07:50:22;8.31;;;3.9;;
32451;SDS011;45528;52.102;5.242;2023-07-16T07:51:59;9.71;;;3.8;;
32451;SDS011;45528;52.102;5.242;2023-07-16T07:55:11;7.8;;;3.3;;
32451;SDS011;45528;52.102;5.242;2023-07-16T07:56:48;8.6;;;3.6;;
32451;SDS011;45528;52.102;5.242;2023-07-16T07:58:25;10.8;;;4.3;;
32451;SDS011;45528;52.102;5.242;2023-07-16T08:01:38;7.3;;;3.6;;
32451;SDS011;45528;52.102;5.242;2023-07-16T08:03:15;7.6;;;3.5;;
32451;SDS011;45528;52.102;5.242;2023-07-16T08:04:53;8.0;;;3.7;;
32451;SDS011;45528;52.102;5.242;2023-07-16T08:06:31;7.3;;;3.5;;
32451;SDS011;45528;52.102;5.242;2023-07-16T08:09:45;9.5;;;3.5;;
32451;SDS011;45528;52.102;5.242;2023-07-16T08:11:22;11.4;;;3.7;;
32451;SDS011;45528;52.102;5.242;2023-07-16T08:12:59;8.81;;;3.9;;
32451;SDS011;45528;52.102;5.242;2023-07-16T08:16:13;7.7;;;3.6;;
32451;SDS011;45528;52.102;5.242;2023-07-16T08:17:51;9.31;;;4.0;;
32451;SDS011;45528;52.102;5.242;2023-07-16T08:19:27;10.4;;;4.3;;
32451;SDS011;45528;52.102;5.242;2023-07-16T08:21:04;10.21;;;4.0;;
32451;SDS011;45528;52.102;5.242;2023-07-16T08:24:17;6.9;;;3.5;;
32451;SDS011;45528;52.102;5.242;2023-07-16T08:25:53;10.5;;;4.41;;
32451;SDS011;45528;52.102;5.242;2023-07-16T08:27:30;7.4;;;3.5;;
32451;SDS011;45528;52.102;5.242;2023-07-16T08:30:46;7.3;;;3.7;;
32451;SDS011;45528;52.102;5.242;2023-07-16T08:32:22;7.1;;;3.8;;
32451;SDS011;45528;52.102;5.242;2023-07-16T08:33:59;7.7;;;3.7;;
32451;SDS011;45528;52.102;5.242;2023-07-16T08:37:12;9.71;;;4.3;;
32451;SDS011;45528;52.102;5.242;2023-07-16T08:38:48;6.3;;;3.8;;
32451;SDS011;45528;52.102;5.242;2023-07-16T08:40:26;7.3;;;3.6;;
32451;SDS011;45528;52.102;5.242;2023-07-16T08:42:02;10.9;;;3.8;;
32451;SDS011;45528;52.102;5.242;2023-07-16T08:45:18;7.8;;;3.9;;
32451;SDS011;45528;52.102;5.242;2023-07-16T08:46:56;7.2;;;3.7;;
32451;SDS011;45528;52.102;5.242;2023-07-16T08:48:33;8.0;;;3.9;;
32451;SDS011;45528;52.102;5.242;2023-07-16T08:51:49;10.0;;;3.9;;
32451;SDS011;45528;52.102;5.242;2023-07-16T08:53:25;7.3;;;3.7;;
32451;SDS011;45528;52.102;5.242;2023-07-16T08:55:02;7.3;;;4.1;;
32451;SDS011;45528;52.102;5.242;2023-07-16T08:56:39;7.3;;;4.1;;
32451;SDS011;45528;52.102;5.242;2023-07-16T08:59:55;9.1;;;4.2;;
32451;SDS011;45528;52.102;5.242;2023-07-16T09:01:32;10.0;;;4.1;;
32451;SDS011;45528;52.102;5.242;2023-07-16T09:03:10;8.31;;;4.2;;
32451;SDS011;45528;52.102;5.242;2023-07-16T09:06:26;10.4;;;4.2;;
32451;SDS011;45528;52.102;5.242;2023-07-16T09:08:03;8.2;;;3.7;;
32451;SDS011;45528;52.102;5.242;2023-07-16T09:09:40;8.5;;;4.1;;
32451;SDS011;45528;52.102;5.242;2023-07-16T09:11:17;10.21;;;4.41;;
32451;SDS011;45528;52.102;5.242;2023-07-16T09:14:34;6.4;;;3.5;;
32451;SDS011;45528;52.102;5.242;2023-07-16T09:16:10;8.81;;;4.0;;
32451;SDS011;45528;52.102;5.242;2023-07-16T09:17:47;8.9;;;3.8;;
32451;SDS011;45528;52.102;5.242;2023-07-16T09:21:01;8.6;;;3.8;;
32451;SDS011;45528;52.102;5.242;2023-07-16T09:22:38;11.5;;;4.3;;
32451;SDS011;45528;52.102;5.242;2023-07-16T09:24:14;9.9;;;4.0;;
32451;SDS011;45528;52.102;5.242;2023-07-16T09:27:30;7.2;;;4.0;;
32451;SDS011;45528;52.102;5.242;2023-07-16T09:29:07;10.21;;;4.61;;
32451;SDS011;45528;52.102;5.242;2023-07-16T09:30:43;14.4;;;4.2;;
32451;SDS011;45528;52.102;5.242;2023-07-16T09:32:20;9.71;;;4.0;;
32451;SDS011;45528;52.102;5.242;2023-07-16T09:35:33;8.6;;;3.6;;
32451;SDS011;45528;52.102;5.242;2023-07-16T09:37:11;8.9;;;3.7;;
32451;SDS011;45528;52.102;5.242;2023-07-16T09:38:48;7.9;;;3.3;;
32451;SDS011;45528;52.102;5.242;2023-07-16T09:42:03;7.8;;;4.0;;
32451;SDS011;45528;52.102;5.242;2023-07-16T09:43:42;8.2;;;4.0;;
32451;SDS011;45528;52.102;5.242;2023-07-16T09:45:19;6.4;;;3.4;;
32451;SDS011;45528;52.102;5.242;2023-07-16T09:46:56;7.6;;;3.8;;
32451;SDS011;45528;52.102;5.242;2023-07-16T09:50:11;9.71;;;3.4;;
32451;SDS011;45528;52.102;5.242;2023-07-16T09:51:48;10.0;;;3.7;;
32451;SDS011;45528;52.102;5.242;2023-07-16T09:53:27;8.31;;;3.8;;
32451;SDS011;45528;52.102;5.242;2023-07-16T09:56:47;10.5;;;3.7;;
32451;SDS011;45528;52.102;5.242;2023-07-16T09:58:26;9.21;;;3.8;;
32451;SDS011;45528;52.102;5.242;2023-07-16T10:00:05;8.0;;;3.5;;
32451;SDS011;45528;52.102;5.242;2023-07-16T10:01:45;9.6;;;4.41;;
32451;SDS011;45528;52.102;5.242;2023-07-16T10:04:59;7.7;;;3.8;;
32451;SDS011;45528;52.102;5.242;2023-07-16T10:06:48;9.4;;;3.8;;
32451;SDS011;45528;52.102;5.242;2023-07-16T10:08:32;10.3;;;4.2;;
32451;SDS011;45528;52.102;5.242;2023-07-16T10:10:10;11.5;;;3.6;;
32451;SDS011;45528;52.102;5.242;2023-07-16T10:13:23;6.6;;;3.5;;
32451;SDS011;45528;52.102;5.242;2023-07-16T10:15:00;9.4;;;3.7;;
32451;SDS011;45528;52.102;5.242;2023-07-16T10:16:38;9.4;;;3.7;;
32451;SDS011;45528;52.102;5.242;2023-07-16T10:18:22;4.91;;;3.2;;
32451;SDS011;45528;52.102;5.242;2023-07-16T10:21:38;9.31;;;3.5;;
32451;SDS011;45528;52.102;5.242;2023-07-16T10:23:15;9.81;;;3.9;;
32451;SDS011;45528;52.102;5.242;2023-07-16T10:24:52;7.2;;;3.4;;
32451;SDS011;45528;52.102;5.242;2023-07-16T10:28:07;7.8;;;3.5;;
32451;SDS011;45528;52.102;5.242;2023-07-16T10:29:45;8.1;;;3.8;;
32451;SDS011;45528;52.102;5.242;2023-07-16T10:31:22;8.81;;;3.8;;
32451;SDS011;45528;52.102;5.242;2023-07-16T10:33:02;7.2;;;4.0;;
32451;SDS011;45528;52.102;5.242;2023-07-16T10:36:17;6.9;;;3.5;;
32451;SDS011;45528;52.102;5.242;2023-07-16T10:37:55;6.5;;;3.4;;
32451;SDS011;45528;52.102;5.242;2023-07-16T10:39:32;7.6;;;3.3;;
32451;SDS011;45528;52.102;5.242;2023-07-16T10:42:45;6.3;;;3.2;;
32451;SDS011;45528;52.102;5.242;2023-07-16T10:44:22;7.6;;;3.1;;
32451;SDS011;45528;52.102;5.242;2023-07-16T10:45:58;5.5;;;2.8;;
32451;SDS011;45528;52.102;5.242;2023-07-16T10:47:35;8.5;;;3.2;;
32451;SDS011;45528;52.102;5.242;2023-07-16T10:50:52;5.9;;;3.4;;
32451;SDS011;45528;52.102;5.242;2023-07-16T10:52:29;5.9;;;3.1;;
32451;SDS011;45528;52.102;5.242;2023-07-16T10:54:06;7.8;;;3.2;;
32451;SDS011;45528;52.102;5.242;2023-07-16T10:57:20;6.0;;;2.6;;
32451;SDS011;45528;52.102;5.242;2023-07-16T10:58:56;7.0;;;2.6;;
32451;SDS011;45528;52.102;5.242;2023-07-16T11:00:36;5.2;;;2.5;;
32451;SDS011;45528;52.102;5.242;2023-07-16T11:02:14;8.1;;;2.4;;
32451;SDS011;45528;52.102;5.242;2023-07-16T11:05:28;8.71;;;2.7;;
32451;SDS011;45528;52.102;5.242;2023-07-16T11:07:05;5.9;;;2.8;;
32451;SDS011;45528;52.102;5.242;2023-07-16T11:08:43;3.6;;;1.9;;
32451;SDS011;45528;52.102;5.242;2023-07-16T11:12:04;6.4;;;2.7;;
32451;SDS011;45528;52.102;5.242;2023-07-16T11:13:41;4.3;;;2.31;;
32451;SDS011;45528;52.102;5.242;2023-07-16T11:15:29;5.8;;;2.31;;
32451;SDS011;45528;52.102;5.242;2023-07-16T11:17:07;8.5;;;2.6;;
32451;SDS011;45528;52.102;5.242;2023-07-16T11:20:22;7.1;;;2.31;;
32451;SDS011;45528;52.102;5.242;2023-07-16T11:21:59;6.5;;;2.0;;
32451;SDS011;45528;52.102;5.242;2023-07-16T11:23:36;4.61;;;2.1;;
32451;SDS011;45528;52.102;5.242;2023-07-16T11:25:12;4.7;;;2.1;;
32451;SDS011;45528;52.102;5.242;2023-07-16T11:28:35;4.2;;;2.0;;
32451;SDS011;45528;52.102;5.242;2023-07-16T11:30:12;4.61;;;2.31;;
32451;SDS011;45528;52.102;5.242;2023-07-16T11:31:49;5.2;;;2.21;;
32451;SDS011;45528;52.102;5.242;2023-07-16T11:35:11;7.6;;;2.4;;
32451;SDS011;45528;52.102;5.242;2023-07-16T11:36:54;4.5;;;2.5;;
32451;SDS011;45528;52.102;5.242;2023-07-16T11:38:42;7.2;;;2.5;;
32451;SDS011;45528;52.102;5.242;2023-07-16T11:40:19;3.7;;;2.21;;
32451;SDS011;45528;52.102;5.242;2023-07-16T11:41:56;4.1;;;2.21;;
32451;SDS011;45528;52.102;5.242;2023-07-16T11:45:19;4.7;;;1.9;;
32451;SDS011;45528;52.102;5.242;2023-07-16T11:46:58;4.5;;;1.9;;
32451;SDS011;45528;52.102;5.242;2023-07-16T11:48:34;4.61;;;1.9;;
32451;SDS011;45528;52.102;5.242;2023-07-16T11:51:47;4.3;;;1.9;;
32451;SDS011;45528;52.102;5.242;2023-07-16T11:53:24;4.41;;;1.8;;
32451;SDS011;45528;52.102;5.242;2023-07-16T11:55:00;3.0;;;1.8;;
32451;SDS011;45528;52.102;5.242;2023-07-16T11:56:36;3.5;;;1.5;;
32451;SDS011;45528;52.102;5.242;2023-07-16T11:59:49;3.5;;;1.3;;
32451;SDS011;45528;52.102;5.242;2023-07-16T12:01:25;4.2;;;1.4;;
32451;SDS011;45528;52.102;5.242;2023-07-16T12:03:02;2.8;;;1.5;;
32451;SDS011;45528;52.102;5.242;2023-07-16T12:06:16;2.8;;;1.5;;
32451;SDS011;45528;52.102;5.242;2023-07-16T12:07:53;3.1;;;1.3;;
32451;SDS011;45528;52.102;5.242;2023-07-16T12:09:30;3.7;;;1.3;;
32451;SDS011;45528;52.102;5.242;2023-07-16T12:12:43;2.6;;;1.2;;
32451;SDS011;45528;52.102;5.242;2023-07-16T12:14:19;3.9;;;1.5;;
32451;SDS011;45528;52.102;5.242;2023-07-16T12:15:56;3.2;;;1.2;;
32451;SDS011;45528;52.102;5.242;2023-07-16T12:17:33;3.1;;;1.4;;
32451;SDS011;45528;52.102;5.242;2023-07-16T12:20:47;6.6;;;1.4;;
32451;SDS011;45528;52.102;5.242;2023-07-16T12:22:24;2.5;;;1.3;;
32451;SDS011;45528;52.102;5.242;2023-07-16T12:24:01;2.5;;;1.11;;
32451;SDS011;45528;52.102;5.242;2023-07-16T12:27:15;3.5;;;1.2;;
32451;SDS011;45528;52.102;5.242;2023-07-16T12:28:54;2.9;;;1.11;;
32451;SDS011;45528;52.102;5.242;2023-07-16T12:30:30;3.8;;;1.4;;
32451;SDS011;45528;52.102;5.242;2023-07-16T12:32:06;3.1;;;1.11;;
32451;SDS011;45528;52.102;5.242;2023-07-16T12:35:20;3.1;;;1.4;;
32451;SDS011;45528;52.102;5.242;2023-07-16T12:36:58;3.1;;;1.6;;
32451;SDS011;45528;52.102;5.242;2023-07-16T12:38:35;2.4;;;1.11;;
32451;SDS011;45528;52.102;5.242;2023-07-16T12:41:49;3.1;;;1.3;;
32451;SDS011;45528;52.102;5.242;2023-07-16T12:43:25;4.2;;;1.4;;
32451;SDS011;45528;52.102;5.242;2023-07-16T12:45:03;3.4;;;1.3;;
32451;SDS011;45528;52.102;5.242;2023-07-16T12:48:17;4.7;;;1.3;;
32451;SDS011;45528;52.102;5.242;2023-07-16T12:49:53;3.6;;;1.4;;
32451;SDS011;45528;52.102;5.242;2023-07-16T12:51:31;4.8;;;1.5;;
32451;SDS011;45528;52.102;5.242;2023-07-16T12:53:08;4.41;;;1.4;;
32451;SDS011;45528;52.102;5.242;2023-07-16T12:56:20;6.3;;;1.4;;